createdAt,value
2018-05-09T08:44:18.355Z,5.30
2018-05-09T08:46:43.956Z,4.50
2018-05-09T08:49:09.783Z,4.50
2018-05-09T08:51:35.336Z,4.60
2018-05-09T08:54:01.125Z,4.23
2018-05-09T08:56:26.939Z,4.10
2018-05-09T08:58:52.553Z,3.43
2018-05-09T09:01:18.177Z,3.60
2018-05-09T09:03:43.913Z,3.37
2018-05-09T09:06:09.558Z,3.65
2018-05-09T09:08:35.141Z,3.50
2018-05-09T09:11:01.001Z,3.60
2018-05-09T09:13:26.688Z,3.60
2018-05-09T09:15:52.394Z,3.10
2018-05-09T09:18:18.225Z,3.20
2018-05-09T09:20:43.815Z,3.93
2018-05-09T09:23:09.373Z,3.13
2018-05-09T09:25:35.160Z,3.10
2018-05-09T09:28:00.779Z,3.33
2018-05-09T09:30:26.347Z,3.30
2018-05-09T09:32:52.099Z,3.20
2018-05-09T09:35:17.846Z,3.30
2018-05-09T09:37:43.461Z,3.67
2018-05-09T09:40:09.106Z,3.50
2018-05-09T09:42:34.841Z,3.50
2018-05-09T09:45:00.517Z,3.40
2018-05-09T09:47:26.077Z,4.53
2018-05-09T09:49:51.821Z,3.73
2018-05-09T09:52:17.477Z,3.90
2018-05-09T09:54:43.063Z,4.20
2018-05-09T09:57:08.830Z,4.17
2018-05-09T09:59:34.404Z,4.10
2018-05-09T10:02:00.025Z,4.10
2018-05-09T10:04:26.054Z,3.83
2018-05-09T10:06:51.633Z,4.13
2018-05-09T10:09:17.179Z,3.90
2018-05-09T10:11:42.996Z,4.43
2018-05-09T10:14:08.625Z,4.10
2018-05-09T10:16:34.240Z,4.07
2018-05-09T10:19:00.151Z,4.30
2018-05-09T10:21:25.761Z,4.10
2018-05-09T10:23:51.331Z,4.60
2018-05-09T10:26:17.155Z,4.27
2018-05-09T10:28:42.809Z,4.50
2018-05-09T10:31:08.389Z,5.00
2018-05-09T10:33:34.123Z,4.50
2018-05-09T10:35:59.707Z,4.70
2018-05-09T10:38:25.582Z,5.07
2018-05-09T10:40:51.411Z,5.30
2018-05-09T10:43:16.991Z,4.60
2018-05-09T10:45:42.612Z,4.80
2018-05-09T10:48:08.456Z,5.50
2018-05-09T10:50:34.020Z,4.80
2018-05-09T10:52:59.653Z,4.70
2018-05-09T10:55:25.674Z,5.17
2018-05-09T10:57:51.306Z,4.77
2018-05-09T11:00:16.871Z,5.50
2018-05-09T11:02:42.597Z,5.03
2018-05-09T11:05:08.227Z,5.03
2018-05-09T11:07:33.728Z,4.87
2018-05-09T11:09:59.525Z,5.03
2018-05-09T11:12:25.156Z,4.93
2018-05-09T11:14:50.741Z,4.93
2018-05-09T11:17:16.506Z,4.70
2018-05-09T11:19:42.052Z,5.13
2018-05-09T11:22:07.866Z,4.93
2018-05-09T11:24:33.594Z,5.13
2018-05-09T11:26:59.164Z,4.93
2018-05-09T11:29:24.728Z,5.37
2018-05-09T11:31:50.528Z,5.43
2018-05-09T11:34:16.136Z,4.80
2018-05-09T11:36:41.688Z,5.17
2018-05-09T11:39:07.500Z,4.50
2018-05-09T11:41:33.126Z,5.40
2018-05-09T11:43:58.684Z,5.00
2018-05-09T11:46:24.416Z,5.30
2018-05-09T11:48:50.006Z,5.20
2018-05-09T11:51:15.643Z,5.50
2018-05-09T11:53:41.402Z,4.97
2018-05-09T11:56:06.966Z,5.33
2018-05-09T11:58:32.532Z,5.17
2018-05-09T12:00:59.359Z,5.03
2018-05-09T12:03:25.125Z,5.20
2018-05-09T12:05:50.818Z,5.03
2018-05-09T12:08:16.518Z,5.13
2018-05-09T12:10:42.256Z,5.30
2018-05-09T12:13:07.665Z,5.07
2018-05-09T12:15:33.539Z,4.90
2018-05-09T12:17:59.135Z,5.00
2018-05-09T12:20:24.693Z,4.77
2018-05-09T12:22:50.475Z,5.40
2018-05-09T12:25:16.079Z,4.83
2018-05-09T12:27:41.841Z,5.10
2018-05-09T12:30:07.461Z,4.60
2018-05-09T12:32:33.049Z,4.63
2018-05-09T12:34:58.888Z,5.30
2018-05-09T12:37:24.457Z,4.87
2018-05-09T12:39:50.023Z,5.40
2018-05-09T12:42:15.796Z,4.80
2018-05-09T12:44:41.388Z,4.57
2018-05-09T12:47:06.940Z,4.60
2018-05-09T12:49:32.739Z,5.23
2018-05-09T12:51:58.376Z,4.50
2018-05-09T12:54:24.020Z,4.30
2018-05-09T12:56:49.812Z,4.63
2018-05-09T12:59:15.589Z,4.83
2018-05-09T13:01:41.203Z,4.87
2018-05-09T13:04:06.999Z,4.43
2018-05-09T13:06:32.571Z,5.10
2018-05-09T13:08:58.161Z,4.60
2018-05-09T13:11:23.881Z,4.63
2018-05-09T13:13:49.620Z,4.70
2018-05-09T13:16:15.287Z,5.07
2018-05-09T13:18:40.841Z,5.18
2018-05-09T13:21:06.594Z,4.93
2018-05-09T13:23:32.445Z,4.77
2018-05-09T13:25:58.121Z,5.17
2018-05-09T13:28:23.615Z,4.87
2018-05-09T13:30:49.477Z,5.07
2018-05-09T13:33:15.446Z,4.50
2018-05-09T13:35:41.062Z,4.83
2018-05-09T13:38:06.848Z,4.70
2018-05-09T13:40:32.475Z,4.43
2018-05-09T13:42:58.216Z,5.03
2018-05-09T13:45:24.033Z,4.90
2018-05-09T13:47:49.621Z,4.70
2018-05-09T13:50:15.181Z,4.37
2018-05-09T13:52:40.947Z,4.60
2018-05-09T13:55:06.519Z,4.07
2018-05-09T13:57:32.145Z,4.47
2018-05-09T13:59:57.940Z,4.80
2018-05-09T14:02:23.562Z,4.60
2018-05-09T14:04:49.221Z,4.47
2018-05-09T14:07:15.027Z,4.20
2018-05-09T14:09:40.653Z,4.57
2018-05-09T14:12:06.554Z,4.57
2018-05-09T14:14:32.569Z,4.27
2018-05-09T14:16:58.218Z,4.27
2018-05-09T14:19:23.795Z,4.40
2018-05-09T14:21:49.594Z,4.60
2018-05-09T14:24:15.176Z,4.50
2018-05-09T14:26:40.941Z,4.20
2018-05-09T14:29:06.506Z,4.43
2018-05-09T14:31:32.152Z,4.57
2018-05-09T14:36:30.185Z,4.50
2018-05-09T14:38:55.777Z,4.53
2018-05-09T14:41:21.412Z,4.20
2018-05-09T14:43:47.144Z,4.23
2018-05-09T14:46:12.772Z,4.43
2018-05-09T14:48:38.374Z,4.50
2018-05-09T14:51:04.220Z,4.57
2018-05-09T14:53:30.010Z,4.23
2018-05-09T14:55:55.645Z,4.27
2018-05-09T14:58:21.595Z,5.03
2018-05-09T15:00:47.458Z,4.33
2018-05-09T15:03:13.009Z,4.20
2018-05-09T15:05:38.653Z,4.30
2018-05-09T15:08:04.391Z,4.40
2018-05-09T15:10:30.045Z,4.70
2018-05-09T15:12:55.589Z,4.50
2018-05-09T15:15:21.710Z,5.17
2018-05-09T15:17:47.271Z,4.60
2018-05-09T15:20:12.869Z,5.17
2018-05-09T15:22:38.677Z,4.80
2018-05-09T15:25:04.239Z,4.67
2018-05-09T15:27:29.837Z,5.00
2018-05-09T15:29:55.672Z,4.23
2018-05-09T15:32:21.226Z,4.23
2018-05-09T15:34:46.787Z,4.43
2018-05-09T15:37:12.490Z,4.93
2018-05-09T15:39:38.087Z,4.50
2018-05-09T15:42:03.709Z,4.30
2018-05-09T15:44:29.490Z,4.83
2018-05-09T15:46:55.058Z,4.70
2018-05-09T15:49:20.621Z,3.90
2018-05-09T15:51:46.410Z,4.17
2018-05-09T15:54:12.108Z,4.40
2018-05-09T15:56:37.678Z,4.50
2018-05-09T15:59:03.473Z,4.33
2018-05-09T16:01:29.111Z,4.23
2018-05-09T16:03:54.724Z,4.03
2018-05-09T16:06:20.562Z,3.97
2018-05-09T16:08:46.124Z,4.73
2018-05-09T16:11:11.687Z,4.30
2018-05-09T16:13:37.556Z,4.87
2018-05-09T16:16:03.388Z,4.67
2018-05-09T16:18:28.995Z,5.60
2018-05-09T16:20:54.561Z,5.83
2018-05-09T16:23:20.411Z,6.70
2018-05-09T16:25:46.138Z,4.83
2018-05-09T16:28:11.710Z,5.43
2018-05-09T16:30:37.264Z,5.63
2018-05-09T16:33:03.033Z,5.40
2018-05-09T16:35:28.658Z,4.80
2018-05-09T16:37:54.204Z,4.10
2018-05-09T16:40:20.351Z,4.40
2018-05-09T16:42:45.991Z,4.53
2018-05-09T16:45:11.582Z,4.30
2018-05-09T16:47:37.591Z,4.20
2018-05-09T16:50:03.227Z,4.37
2018-05-09T16:52:28.841Z,5.07
2018-05-09T16:54:54.590Z,5.07
2018-05-09T16:57:20.462Z,5.00
2018-05-09T16:59:46.032Z,4.53
2018-05-09T17:02:11.613Z,4.00
2018-05-09T17:04:37.607Z,4.17
2018-05-09T17:07:03.210Z,4.70
2018-05-09T17:09:28.952Z,5.00
2018-05-09T17:11:54.682Z,4.80
2018-05-09T17:14:20.249Z,4.97
2018-05-09T17:16:45.957Z,4.70
2018-05-09T17:19:11.579Z,4.83
2018-05-09T17:22:27.251Z,4.33
2018-05-09T17:24:52.982Z,4.20
2018-05-09T17:27:18.660Z,5.00
2018-05-09T17:29:44.227Z,4.30
2018-05-09T17:32:09.833Z,4.83
2018-05-09T17:34:35.645Z,4.50
2018-05-09T17:37:01.259Z,4.30
2018-05-09T17:39:26.884Z,4.27
2018-05-09T17:41:52.627Z,4.95
2018-05-09T17:44:18.237Z,4.50
2018-05-09T17:46:43.808Z,4.83
2018-05-09T17:49:09.622Z,4.47
2018-05-09T17:51:35.232Z,4.97
2018-05-09T17:54:00.798Z,5.00
2018-05-09T17:56:26.672Z,4.37
2018-05-09T17:58:52.515Z,4.50
2018-05-09T18:01:18.083Z,4.90
2018-05-09T18:03:43.805Z,4.83
2018-05-09T18:06:09.442Z,4.80
2018-05-09T18:08:35.091Z,5.07
2018-05-09T18:11:00.885Z,4.90
2018-05-09T18:13:26.513Z,5.10
2018-05-09T18:15:52.126Z,5.20
2018-05-09T18:18:18.189Z,4.90
2018-05-09T18:20:43.811Z,4.83
2018-05-09T18:23:09.387Z,5.33
2018-05-09T18:25:35.237Z,5.53
2018-05-09T18:28:00.876Z,5.20
2018-05-09T18:30:26.508Z,5.23
2018-05-09T18:32:52.286Z,5.20
2018-05-09T18:35:17.911Z,5.07
2018-05-09T18:37:43.524Z,5.20
2018-05-09T18:40:09.323Z,5.07
2018-05-09T18:42:34.827Z,5.80
2018-05-09T18:45:00.482Z,5.17
2018-05-09T18:47:26.236Z,5.23
2018-05-09T18:49:51.782Z,5.40
2018-05-09T18:52:17.353Z,5.90
2018-05-09T18:54:43.146Z,5.40
2018-05-09T18:57:08.722Z,6.23
2018-05-09T18:59:34.587Z,5.43
2018-05-09T19:02:00.163Z,6.12
2018-05-09T19:04:25.787Z,5.90
2018-05-09T19:06:52.648Z,5.70
2018-05-09T19:09:18.261Z,6.20
2018-05-09T19:11:44.272Z,6.20
2018-05-09T19:14:11.027Z,5.73
2018-05-09T19:16:39.306Z,6.00
2018-05-09T19:19:04.909Z,6.03
2018-05-09T19:21:31.046Z,6.90
2018-05-09T19:23:56.653Z,7.00
2018-05-09T19:26:22.477Z,6.30
2018-05-09T19:28:48.409Z,7.07
2018-05-09T19:31:14.171Z,6.23
2018-05-09T19:33:39.970Z,6.43
2018-05-09T19:36:05.599Z,5.97
2018-05-09T19:38:31.250Z,6.63
2018-05-09T19:40:56.984Z,6.97
2018-05-09T19:43:22.574Z,7.87
2018-05-09T19:45:48.684Z,8.03
2018-05-09T19:48:14.432Z,8.38
2018-05-09T19:50:40.115Z,8.13
2018-05-09T19:53:05.643Z,7.70
2018-05-09T19:55:31.446Z,7.27
2018-05-09T19:57:57.073Z,7.20
2018-05-09T20:00:22.668Z,8.03
2018-05-09T20:02:48.837Z,7.60
2018-05-09T20:05:14.467Z,7.67
2018-05-09T20:07:40.041Z,7.83
2018-05-09T20:10:05.894Z,8.23
2018-05-09T20:12:31.484Z,8.57
2018-05-09T20:14:57.145Z,10.13
2018-05-09T20:17:22.992Z,9.07
2018-05-09T20:19:48.557Z,9.48
2018-05-09T20:22:14.260Z,8.33
2018-05-09T20:24:39.994Z,8.13
2018-05-09T20:27:05.945Z,7.93
2018-05-09T20:29:31.607Z,8.13
2018-05-09T20:35:04.042Z,7.17
2018-05-09T20:37:29.941Z,7.67
2018-05-09T20:39:55.513Z,8.50
2018-05-09T20:42:21.106Z,7.53
2018-05-09T20:44:46.822Z,7.63
2018-05-09T20:47:12.529Z,6.83
2018-05-09T20:49:38.170Z,7.03
2018-05-09T20:52:03.983Z,8.43
2018-05-09T20:54:29.855Z,7.63
2018-05-09T20:56:55.473Z,7.40
2018-05-09T20:59:21.549Z,8.00
2018-05-09T21:01:47.170Z,8.30
2018-05-09T21:04:12.741Z,7.80
2018-05-09T21:06:38.657Z,7.60
2018-05-09T21:09:04.430Z,7.10
2018-05-09T21:11:31.381Z,7.67
2018-05-09T21:13:56.961Z,7.27
2018-05-09T21:16:22.753Z,7.10
2018-05-09T21:18:48.337Z,7.73
2018-05-09T21:21:14.290Z,7.13
2018-05-09T21:23:40.189Z,7.53
2018-05-09T21:26:05.793Z,7.73
2018-05-09T21:28:31.657Z,7.27
2018-05-09T21:30:57.261Z,7.80
2018-05-09T21:33:23.064Z,7.73
2018-05-09T21:35:48.954Z,7.23
2018-05-09T21:38:14.549Z,7.83
2018-05-09T21:40:40.146Z,7.40
2018-05-09T21:43:05.902Z,7.10
2018-05-09T21:45:31.566Z,6.80
2018-05-09T21:47:57.257Z,7.20
2018-05-09T21:50:23.056Z,6.83
2018-05-09T21:52:48.639Z,7.30
2018-05-09T21:55:14.191Z,9.50
2018-05-09T21:57:39.976Z,8.80
2018-05-09T22:00:05.534Z,9.17
2018-05-09T22:02:31.168Z,9.17
2018-05-09T22:04:56.945Z,8.37
2018-05-09T22:07:22.509Z,8.93
2018-05-09T22:09:48.221Z,8.73
2018-05-09T22:12:13.834Z,8.70
2018-05-09T22:14:39.469Z,8.90
2018-05-09T22:17:05.304Z,9.30
2018-05-09T22:19:32.024Z,9.07
2018-05-09T22:21:58.210Z,9.03
2018-05-09T22:24:24.020Z,9.17
2018-05-09T22:26:49.873Z,9.50
2018-05-09T22:29:15.532Z,8.93
2018-05-09T22:31:41.254Z,8.43
2018-05-09T22:34:06.871Z,8.60
2018-05-09T22:36:32.605Z,9.47
2018-05-09T22:38:58.920Z,9.13
2018-05-09T22:41:24.491Z,8.03
2018-05-09T22:43:50.056Z,8.70
2018-05-09T22:46:16.143Z,8.83
2018-05-09T22:48:41.763Z,8.87
2018-05-09T22:51:07.371Z,10.70
2018-05-09T22:53:33.492Z,8.97
2018-05-09T22:55:59.074Z,8.80
2018-05-09T22:58:24.685Z,8.67
2018-05-09T23:00:50.501Z,7.90
2018-05-09T23:03:16.215Z,9.85
2018-05-09T23:05:42.428Z,8.70
2018-05-09T23:08:08.199Z,8.37
2018-05-09T23:10:34.000Z,8.17
2018-05-09T23:12:59.640Z,9.20
2018-05-09T23:15:25.576Z,10.10
2018-05-09T23:17:51.117Z,10.00
2018-05-09T23:20:16.848Z,10.03
2018-05-09T23:22:42.759Z,9.93
2018-05-09T23:25:08.329Z,9.57
2018-05-09T23:27:34.443Z,9.10
2018-05-09T23:30:00.088Z,9.30
2018-05-09T23:32:25.646Z,9.60
2018-05-09T23:34:51.412Z,8.23
2018-05-09T23:37:17.031Z,8.97
2018-05-09T23:39:42.606Z,9.50
2018-05-09T23:42:08.448Z,8.87
2018-05-09T23:44:34.026Z,8.50
2018-05-09T23:46:59.725Z,8.37
2018-05-09T23:49:25.485Z,8.73
2018-05-09T23:51:51.334Z,7.90
2018-05-09T23:54:16.891Z,8.43
2018-05-09T23:56:42.523Z,8.70
2018-05-09T23:59:08.291Z,8.23
